Etusivu
METAR-TAF:

METAR-TAF

Lentoasemat :

Norne Fpso, Norja

Öljynporauslautta

Leveyspiiri: 66-01-48N, Pituuspiiri: 008-04-48E, korkeus merenpinnasta: 10 m

Tämänhetkinen sää

Tämä raportti tehtiin 34 minuuttia sitten, kello 04.20 UTC
Tuuli 3 kn pohjoisen/luoteesta
Lämpötila 7°C
Kosteus 76%
Ilmanpaine 1017 hPa
Näkyvyys 10 km tai enemmän

METAR: ENNE 230420Z AUTO 34003KT 9999NDV OVC023/// 07/03 Q1017 W///S4

Aika: 06:54 (04:54 UTC)

Sääennuste

Tämä raportti tehtiin 17 tuntia ja 54 minuuttia sitten, kello 11.00 UTC
Ennuste voimassa 22. päivästä klo 12 UTC - 22. päivään klo 17 UTC
Tuuli 8 kn lännestä
Näkyvyys 10 km tai enemmän
Hajonneita pilviä 2000 ft:n korkeudessa

TAF: ENNE 221100Z 2212/2217 28008KT 9999 BKN020

Säähavainnot ja -ennusteet yli 4000 lentoasemalta (METAR- ja TAF-raportit).

Käytössä olevat sääasemat on merkitty karttaan keltaisilla ja punaisilla pisteillä.

Aseta hiiri pisteen päälle nähdäksesi sääaseman nimen.

Klikkaa sitten nähdäksesi säähavainnot ja -ennusteet.

Kartan vaihtaminen: klikkaa mustalla rastilla varustettuja vihreitä pisteitä, niin voit zoomata sisään; viivalla varustettua vihreää pistettä, niin voit zoomata ulos tai vihreitä nuolia, niin pääset viereisille kartoille.


METAR-TAF: